Main page
METAR-TAF:

METAR-TAF

Airports :

Mariehamn Airport

Mariehamn, Finland

latitude: 60-07N, longitude: 019-54E, elevation: 6 m

Current weather observation

The report was made 18 minutes ago, at 04:20 UTC
Wind 4 kt from the West/Northwest, varying between West and North/Northwest
Temperature -3°C
Humidity 80%
Pressure 1014 hPa
Visibility 10 km or more
Overcast at a height of 3700 ft

METAR: EFMA 210420Z AUTO 30004KT 270V330 9999 OVC037 M03/M06 Q1014

Time: 06:38 (04:38 UTC)

Forecast

The report was made 2 hours and 8 minutes ago, at 02:30 UTC
Forecast valid from 21 at 03 UTC to 21 at 12 UTC
Wind 5 kt from the West/Northwest
Visibility 10 km or more
Broken clouds at a height of 3500 ft
Probability 30%
from 21 at 03 UTC to 21 at 07 UTC
Visibility: 5000 m
Scattered clouds at a height of 4000 ft, Towering cumulus.
light snow showers

TAF: EFMA 210230Z 2103/2112 29005KT 9999 BKN035 PROB30 2103/2107 5000 -SHSN SCT040TCU

Weather observations and forecasts of more than 4000 airports (METAR and TAF reports).

The available stations are represented by yellow and red dots on the map.

Hover mouse over dot to see the name of the station.

Then click to see weather observations and forecasts.

To change the map : click on the green buttons with a black cross to zoom in, on the green button with a dash to zoom out, or on the green arrows for adjacent maps.


METAR-TAF: